Latest Weather Observations for Macquarie Island

IDT60801

Issued at 4:21 am EST Wednesday 17 July 2019 (issued every 10 minutes, with the page automatically refreshed every 10 minutes)

About weather observations | Map of weather stations | Latest weather observations for TAS | Other Formats
Station Details ID: 300004 Name: MACQUARIE ISLAND Lat: -54.50 Lon: 158.94 Height: 6.0 m
Data from the previous 72 hours. | See also: Recent months at Macquarie Island
Date/Time
EST
Temp
°C
App
Temp
°C
Dew
Point
°C
Rel
Hum
%
Delta-T
°C
Wind Press
QNH
hPa
Press
MSL
hPa
Rain since
9am
mm
Dir  Spd
km/h
Gust
km/h
Spd
kts
Gust
kts
17/04:00am 1.5 -5.6 -1.2 82 1.0 WSW 26 37 14 20 981.0 - 0.2
17/03:30am 0.9 -5.8 -1.2 86 0.7 SW 24 43 13 23 980.8 - 0.2
17/03:00am 1.4 -5.0 -1.8 79 1.1 WSW 22 35 12 19 980.8 981.1 0.2
17/02:30am 1.3 -4.7 -1.8 80 1.1 SW 20 37 11 20 980.7 - 0.2
17/02:00am 1.6 -5.2 -1.5 80 1.1 SW 24 39 13 21 980.6 - 0.2
17/01:30am 1.6 -4.3 -0.8 84 0.9 SW 20 32 11 17 980.5 - 0.2
17/01:00am 1.5 -4.8 -1.1 83 0.9 WSW 22 39 12 21 980.3 - 0.2
17/12:30am 1.4 -4.9 -0.8 85 0.8 SW 22 39 12 21 980.2 - 0.2
17/12:00am 1.4 -4.9 -1.0 84 0.9 SW 22 35 12 19 980.3 980.6 0.2
 
Date/Time
EST
Temp
°C
App
Temp
°C
Dew
Point
°C
Rel
Hum
%
Delta-T
°C
Wind Press
QNH
hPa
Press
MSL
hPa
Rain since
9am
mm
Dir  Spd
km/h
Gust
km/h
Spd
kts
Gust
kts
16/11:30pm 1.5 -5.1 -0.4 87 0.7 W 24 43 13 23 980.1 - 0.2
16/11:00pm 1.4 -6.4 -1.0 84 0.9 W 30 50 16 27 980.0 - 0.2
16/10:30pm 1.4 -6.8 -1.3 82 0.9 W 32 54 17 29 980.0 - 0.2
16/10:07pm 1.6 -6.8 -1.0 83 0.9 W 33 52 18 28 979.9 - 0.2
16/10:00pm 1.5 -7.6 -0.6 86 0.8 W 37 48 20 26 979.8 - 0.2
16/09:30pm 1.5 -7.3 -0.9 84 0.9 W 35 54 19 29 979.8 - 0.2
16/09:10pm 1.4 -7.8 -1.5 81 1.0 W 37 56 20 30 979.7 - 0.2
16/09:00pm 1.6 -7.2 -1.0 83 0.9 W 35 50 19 27 979.6 979.9 0.2
16/08:30pm 1.3 -7.8 -0.8 86 0.7 W 37 56 20 30 979.7 - 0.2
16/08:00pm 1.2 -7.2 -0.7 87 0.7 W 33 54 18 29 979.7 - 0.2
16/07:39pm 1.4 -6.8 -0.7 86 0.8 W 32 50 17 27 979.8 - 0.0
16/07:30pm 1.3 -6.8 -0.6 87 0.7 W 32 44 17 24 979.9 - 0.0
16/07:00pm 0.9 -8.3 -1.3 85 0.8 W 37 57 20 31 980.0 - 0.0
16/06:57pm 1.0 -8.2 -1.1 86 0.7 W 37 57 20 31 980.1 - 0.0
16/06:30pm 1.6 -7.1 -0.6 85 0.8 W 35 46 19 25 980.0 - 0.0
16/06:00pm 1.5 -6.7 -0.7 85 0.8 W 32 56 17 30 979.8 980.1 0.0
16/05:58pm 1.4 -6.8 -1.0 84 0.9 W 32 50 17 27 980.0 - 0.0
16/05:30pm 1.6 -7.1 -0.6 85 0.8 W 35 48 19 26 979.6 - 0.0
16/05:02pm 1.4 -6.8 -1.2 83 0.9 W 32 50 17 27 979.5 - 0.0
16/05:00pm 1.4 -7.4 -1.2 83 0.9 W 35 50 19 27 979.7 - 0.0
16/04:30pm 1.3 -7.1 -0.8 86 0.7 W 33 54 18 29 979.5 - 0.0
16/04:03pm 1.7 -7.1 -1.4 80 1.1 W 35 54 19 29 979.2 - 0.0
16/04:00pm 1.8 -6.9 -0.6 84 0.9 W 35 48 19 26 979.3 - 0.0
16/03:30pm 1.9 -7.7 -1.3 79 1.1 W 39 48 21 26 979.4 - 0.0
16/03:00pm 1.8 -7.4 -1.4 79 1.2 W 37 54 20 29 979.3 979.6 0.0
16/02:33pm 1.8 -6.9 -0.6 84 0.9 W 35 56 19 30 979.3 - 0.0
16/02:30pm 1.7 -7.5 -1.0 82 1.0 W 37 48 20 26 979.4 - 0.0
16/02:00pm 1.7 -8.2 -1.0 82 1.0 W 41 54 22 29 979.3 - 0.0
16/01:30pm 1.9 -8.4 -0.7 83 0.9 W 43 52 23 28 979.1 - 0.0
16/01:00pm 1.8 -8.5 -0.9 82 1.0 W 43 54 23 29 978.8 - 0.0
16/12:42pm 2.0 -8.3 -1.2 79 1.1 W 43 61 23 33 978.8 - 0.0
16/12:30pm 2.3 -7.9 -0.6 81 1.1 W 43 59 23 32 978.8 - 0.0
16/12:00pm 2.0 -8.5 -1.1 80 1.1 W 44 57 24 31 978.9 979.2 0.0
16/11:30am 1.9 -8.5 -0.5 84 0.9 W 44 65 24 35 978.9 - 0.0
16/11:00am 1.6 -9.0 -1.6 79 1.1 W 44 63 24 34 978.7 - 0.0
16/10:30am 2.0 -8.9 -1.6 77 1.3 W 46 70 25 38 978.7 - 0.0
16/10:09am 1.7 -8.9 -1.9 77 1.2 W 44 63 24 34 979.0 - 0.0
16/10:00am 1.7 -9.3 -1.9 77 1.2 W 46 59 25 32 979.0 - 0.0
16/09:30am 1.1 -8.1 -1.5 83 0.9 W 37 63 20 34 979.3 - 0.0
16/09:00am 1.2 -7.8 -2.4 77 1.3 W 35 54 19 29 979.5 979.8 0.2
16/08:30am 0.7 -8.7 -3.2 75 1.3 W 37 56 20 30 979.4 - 0.2
16/08:00am 0.5 -9.3 -3.2 76 1.3 W 39 61 21 33 979.2 - 0.2
16/07:50am 0.4 -8.7 -3.3 76 1.3 W 35 54 19 29 979.3 - 0.2
16/07:30am 0.5 -8.9 -3.1 77 1.2 W 37 54 20 29 979.1 - 0.2
16/07:00am 0.5 -9.7 -3.6 74 1.4 W 41 50 22 27 979.2 - 0.2
16/06:30am 0.4 -8.3 -3.3 76 1.3 W 33 48 18 26 979.5 - 0.2
16/06:02am 0.3 -8.3 -3.8 74 1.4 W 32 50 17 27 979.6 - 0.2
16/06:00am 0.3 -8.4 -3.6 75 1.3 W 33 50 18 27 979.6 979.9 0.2
16/05:30am 0.2 -8.9 -3.9 74 1.4 W 35 43 19 23 979.7 - 0.2
16/05:00am 0.3 -7.4 -3.1 78 1.2 W 28 48 15 26 979.7 - 0.2
16/04:51am 0.3 -7.7 -2.6 81 1.0 W 30 48 16 26 979.5 - 0.2
16/04:30am 0.0 -8.4 -2.2 85 0.8 W 32 46 17 25 979.7 - 0.2
16/04:08am 0.6 -7.2 -3.9 72 1.5 W 28 46 15 25 979.8 - 0.2
16/04:00am 0.7 -7.8 -3.0 76 1.3 W 32 43 17 23 979.7 - 0.2
16/03:31am 0.5 -7.9 -2.4 81 1.0 W 32 50 17 27 979.7 - 0.2
16/03:30am 0.7 -7.9 -2.7 78 1.2 W 33 50 18 27 979.6 - 0.2
16/03:00am 0.7 -8.5 -4.1 70 1.6 W 35 46 19 25 979.8 980.1 0.2
16/02:30am 0.6 -8.8 -3.1 76 1.3 W 37 56 20 30 979.9 - 0.2
16/02:27am 0.6 -8.8 -3.1 76 1.3 W 37 56 20 30 980.0 - 0.2
16/02:00am 0.7 -9.5 -3.0 76 1.3 W 41 54 22 29 979.8 - 0.2
16/01:37am 0.2 -9.8 -2.0 85 0.8 W 41 61 22 33 980.0 - 0.2
16/01:30am 0.4 -9.2 -1.2 89 0.6 W 39 54 21 29 980.3 - 0.2
16/01:00am 0.2 -9.0 -1.4 89 0.6 W 37 50 20 27 980.6 - 0.2
16/12:30am 0.6 -8.1 -3.5 74 1.4 W 33 46 18 25 980.6 - 0.2
16/12:00am 0.4 -7.3 -3.1 77 1.2 W 28 46 15 25 980.8 981.1 0.2
 
Date/Time
EST
Temp
°C
App
Temp
°C
Dew
Point
°C
Rel
Hum
%
Delta-T
°C
Wind Press
QNH
hPa
Press
MSL
hPa
Rain since
9am
mm
Dir  Spd
km/h
Gust
km/h
Spd
kts
Gust
kts
15/11:55pm 0.2 -7.5 -3.0 79 1.1 W 28 48 15 26 980.8 - 0.2
15/11:30pm 0.4 -8.1 -3.3 76 1.3 W 32 48 17 26 981.0 - 0.2
15/11:14pm 0.2 -7.6 -4.2 72 1.4 W 28 46 15 25 981.0 - 0.2
15/11:00pm 0.3 -8.3 -4.0 73 1.4 W 32 44 17 24 981.2 - 0.2
15/10:30pm 0.2 -7.7 -4.4 71 1.5 W 28 46 15 25 981.5 - 0.2
15/10:08pm 0.4 -7.4 -3.7 74 1.4 W 28 50 15 27 981.7 - 0.2
15/10:00pm 0.4 -7.4 -3.5 75 1.3 W 28 39 15 21 981.8 - 0.2
15/09:34pm -0.1 -7.8 -2.6 83 0.8 W 28 46 15 25 982.1 - 0.2
15/09:30pm 0.0 -8.4 -2.7 82 0.9 W 32 46 17 25 982.1 - 0.2
15/09:01pm 0.3 -8.4 -3.6 75 1.3 W 33 52 18 28 982.0 - 0.2
15/09:00pm 0.3 -8.8 -3.6 75 1.3 W 35 52 19 28 982.0 982.3 0.2
15/08:41pm 0.2 -8.2 -2.2 84 0.8 W 32 50 17 27 982.0 - 0.2
15/08:30pm 0.3 -8.7 -2.4 82 0.9 W 35 50 19 27 982.1 - 0.2
15/08:00pm 0.5 -8.1 -3.8 73 1.4 W 32 48 17 26 982.3 - 0.2
15/07:30pm 0.7 -8.4 -3.4 74 1.4 W 35 48 19 26 982.5 - 0.2
15/07:00pm 0.8 -7.7 -3.5 73 1.5 W 32 50 17 27 982.7 - 0.2
15/06:58pm 0.8 -7.7 -3.3 74 1.4 W 32 50 17 27 982.8 - 0.2
15/06:30pm 1.0 -7.9 -1.9 81 1.0 W 35 48 19 26 983.0 - 0.2
15/06:05pm 0.9 -7.6 -3.2 74 1.4 W 32 52 17 28 983.1 - 0.2
15/06:00pm 0.8 -7.8 -3.8 71 1.6 W 32 46 17 25 983.2 983.5 0.2
15/05:30pm 0.9 -6.4 -3.0 75 1.4 W 26 48 14 26 983.2 - 0.2
15/05:00pm 1.1 -5.7 -1.6 82 0.9 W 24 41 13 22 983.6 - 0.2
15/04:30pm 0.9 -4.7 -2.5 78 1.2 WSW 17 32 9 17 983.8 - 0.2
15/04:00pm 0.6 -5.8 -1.5 86 0.8 SW 22 37 12 20 984.2 - 0.2
15/03:30pm 0.6 -5.4 -1.3 87 0.7 WSW 20 37 11 20 984.4 - 0.2
15/03:00pm 0.8 -5.2 -1.6 84 0.9 W 20 32 11 17 984.5 984.8 0.2
15/02:43pm 0.9 -6.7 -2.5 78 1.2 SW 28 43 15 23 984.6 - 0.2
15/02:30pm 0.8 -4.3 -2.1 81 1.0 WSW 15 24 8 13 984.5 - 0.2
15/02:00pm 1.0 -4.5 -2.2 79 1.2 SW 17 43 9 23 984.9 - 0.2
15/01:30pm 0.6 -6.2 -1.6 85 0.8 W 24 33 13 18 985.0 - 0.2
15/01:00pm 0.9 -7.5 -1.2 86 0.7 W 33 54 18 29 985.0 - 0.2
15/12:51pm 0.7 -8.1 -1.2 87 0.7 W 35 54 19 29 985.1 - 0.2
15/12:30pm 1.0 -7.5 -1.7 82 0.9 W 33 44 18 24 985.3 - 0.2
15/12:00pm 1.1 -5.7 -2.0 80 1.1 W 24 41 13 22 986.1 986.4 0.2
15/11:40am 0.9 -7.0 -1.8 82 1.0 W 30 43 16 23 986.6 - 0.2
15/11:30am 0.7 -4.4 -2.0 82 1.0 WSW 15 24 8 13 986.7 - 0.2
15/11:00am 0.6 -4.1 -1.5 86 0.8 W 13 28 7 15 987.0 - 0.2
15/10:30am 1.2 -4.8 -3.3 72 1.6 SW 19 33 10 18 987.3 - 0.0
15/10:00am 1.0 -3.8 -2.7 76 1.3 S 13 24 7 13 987.8 - 0.0
15/09:30am 0.4 -3.7 -3.1 77 1.2 SSW 9 15 5 8 987.9 - 0.0
15/09:00am 0.8 -4.9 -4.0 70 1.6 SW 17 30 9 16 988.1 988.4 0.4
15/08:30am 0.5 -4.4 -3.4 75 1.3 SW 13 26 7 14 988.2 - 0.4
15/08:00am 0.3 -4.5 -2.4 82 0.9 WSW 13 26 7 14 988.2 - 0.4
15/07:30am 0.1 -5.0 -2.1 85 0.8 SW 15 24 8 13 988.5 - 0.4
15/07:00am -0.1 -4.5 -2.5 84 0.8 SW 11 19 6 10 988.4 - 0.4
15/06:30am -0.2 -6.4 -2.9 82 0.9 SW 20 32 11 17 988.4 - 0.4
15/06:00am 0.0 -4.4 -2.1 86 0.7 SSW 11 17 6 9 988.6 988.9 0.4
15/05:30am 0.3 -4.8 -2.1 84 0.8 WSW 15 24 8 13 988.9 - 0.4
15/05:00am -0.5 -5.4 -3.3 81 0.9 SW 13 20 7 11 989.0 - 0.4
15/04:30am 0.0 -5.3 -3.5 77 1.2 SW 15 24 8 13 989.0 - 0.4
15/04:00am 0.2 -5.1 -3.5 76 1.2 SW 15 32 8 17 989.2 - 0.4
15/03:30am 0.6 -4.4 -4.0 71 1.5 SW 13 24 7 13 989.1 - 0.4
15/03:00am 0.7 -5.5 -4.9 66 1.9 WSW 19 30 10 16 989.4 989.7 0.4
15/02:30am 1.1 -3.9 -4.1 68 1.8 WSW 13 24 7 13 989.4 - 0.4
15/02:00am 0.9 -4.7 -3.0 75 1.4 W 17 24 9 13 989.4 - 0.4
15/01:30am 0.4 -4.8 -2.8 79 1.1 SSW 15 24 8 13 989.5 - 0.4
15/01:00am 0.5 -5.4 -2.4 81 1.0 SW 19 30 10 16 989.5 - 0.4
15/12:30am 0.6 -5.5 -2.4 80 1.1 SW 20 32 11 17 989.4 - 0.4
15/12:00am 0.5 -4.3 -2.4 81 1.0 SSW 13 24 7 13 989.5 989.8 0.4
 
Date/Time
EST
Temp
°C
App
Temp
°C
Dew
Point
°C
Rel
Hum
%
Delta-T
°C
Wind Press
QNH
hPa
Press
MSL
hPa
Rain since
9am
mm
Dir  Spd
km/h
Gust
km/h
Spd
kts
Gust
kts
14/11:30pm 0.4 -4.4 -2.6 80 1.0 SSW 13 19 7 10 989.6 - 0.4
14/11:00pm 0.4 -4.7 -2.1 83 0.9 SSW 15 22 8 12 989.8 - 0.4
14/10:30pm 0.3 -5.6 -2.6 81 1.0 SW 19 30 10 16 990.1 - 0.4
14/10:00pm 0.6 -4.6 -2.8 78 1.2 SW 15 26 8 14 990.2 - 0.4
14/09:30pm 0.6 -4.3 -3.0 77 1.2 SSW 13 20 7 11 990.3 - 0.4
14/09:00pm 0.6 -4.3 -3.0 77 1.3 SSW 13 19 7 10 990.4 990.7 0.4
14/08:30pm -0.1 -4.7 -3.8 76 1.2 SSW 11 15 6 8 990.3 - 0.4
14/08:00pm -0.2 -4.7 -3.2 80 1.0 SSW 11 17 6 9 990.3 - 0.4
14/07:30pm 0.0 -6.0 -3.4 78 1.1 SSW 19 26 10 14 990.4 - 0.4
14/07:00pm 0.0 -6.2 -3.0 80 1.0 SSW 20 28 11 15 990.4 - 0.4
14/06:30pm 0.1 -4.7 -2.8 81 1.0 SSW 13 19 7 10 990.4 - 0.4
14/06:00pm -0.3 -6.3 -2.7 84 0.8 S 19 24 10 13 990.3 990.6 0.4
14/05:30pm 0.2 -5.8 -3.0 79 1.1 SSW 19 28 10 15 990.0 - 0.2
14/05:00pm -0.2 -4.8 -3.9 76 1.2 SSW 11 19 6 10 989.8 - 0.2
14/04:30pm 0.1 -6.1 -3.1 79 1.1 S 20 26 11 14 989.9 - 0.2
14/04:00pm 0.0 -6.0 -3.4 78 1.1 WSW 19 22 10 12 989.7 - 0.2
14/03:30pm -0.2 -5.1 -3.4 79 1.0 SW 13 20 7 11 989.6 - 0.2
14/03:00pm 0.0 -4.2 -3.9 75 1.3 SW 9 15 5 8 989.4 989.7 0.2
14/02:30pm 0.1 -4.8 -3.1 79 1.1 WSW 13 22 7 12 989.2 - 0.2
14/02:00pm 1.3 -3.8 -5.0 63 2.1 WSW 13 22 7 12 989.1 - 0.0
14/01:30pm 1.7 -3.3 -4.6 63 2.1 S 13 20 7 11 989.1 - 0.0
14/01:00pm 1.6 -3.7 -4.0 66 1.9 S 15 20 8 11 989.4 - 0.0
14/12:30pm 1.8 -2.8 -4.1 65 2.0 SSW 11 17 6 9 989.5 - 0.0
14/12:00pm 1.7 -3.3 -4.2 65 2.1 SSW 13 22 7 12 989.5 989.8 0.0
14/11:30am 1.0 -3.9 -3.7 71 1.6 SSW 13 19 7 10 989.5 - 0.0
14/11:00am 1.1 -4.2 -3.7 70 1.7 SSW 15 26 8 14 989.4 - 0.0
14/10:30am 1.6 -3.4 -3.9 67 1.9 SW 13 20 7 11 989.5 - 0.0
14/10:00am 1.3 -4.0 -3.7 69 1.7 W 15 22 8 12 989.6 - 0.0
14/09:30am 0.6 -5.4 -2.8 78 1.2 WSW 19 35 10 19 989.6 - 0.0
14/09:00am 1.2 -4.0 -2.9 74 1.5 SW 15 22 8 12 989.2 989.5 6.0
14/08:30am 1.0 -5.0 -3.1 74 1.4 WSW 19 30 10 16 989.1 - 6.0
14/08:00am 0.6 -3.7 -1.8 84 0.9 SSW 11 17 6 9 989.3 - 6.0
14/07:30am 0.5 -3.7 -1.1 89 0.6 S 11 17 6 9 989.1 - 6.0
14/07:00am 0.5 -4.2 -1.9 84 0.9 SSW 13 20 7 11 988.8 - 5.4
14/06:30am 0.5 -5.9 -1.6 86 0.8 SSW 22 32 12 17 988.8 - 5.4
14/06:00am 0.5 -5.5 -1.4 87 0.7 SSW 20 24 11 13 988.7 989.0 5.4
14/05:30am 0.8 -4.6 -1.3 86 0.7 WSW 17 24 9 13 988.5 - 5.4
14/05:00am 1.1 -3.5 -1.1 85 0.8 SSW 13 19 7 10 988.2 - 5.4
14/04:30am 1.0 -4.0 -1.2 85 0.8 SSW 15 22 8 12 988.1 - 5.4

Other formats

Comma delimited format used in spreadsheet applications
http://www.bom.gov.au/fwo/IDT60801/IDT60801.94998.axf

JavaScript Object Notation format (JSON) in row-major order
http://www.bom.gov.au/fwo/IDT60801/IDT60801.94998.json

Data quality

Most of these data are generated automatically and are frequently updated. Quality checks on data are not normally performed. It is possible for incorrect values to appear. Refer to information at About Latest Weather Observations and please check the disclaimer before using these data.